Time;durP1;ratioP1;P1;durP2;ratioP2;P2;SDS_P1;SDS_P2;PMS_P1;PMS_P2;Temp;Humidity;BMP_temperature;BMP_pressure;BME280_temperature;BME280_humidity;BME280_pressure;Samples;Min_cycle;Max_cycle;Signal;HPM_P1;HPM_P2
2022/04/20 00:02:19;;;;;;;5.55;3.92;;;9.40;96.20;;;;;;5064094;28;20269;-76
2022/04/20 00:04:46;;;;;;;4.97;4.20;;;9.40;96.20;;;;;;5056326;28;20219;-76
2022/04/20 00:07:13;;;;;;;7.45;3.95;;;9.40;96.30;;;;;;5057260;28;20239;-76
2022/04/20 00:09:39;;;;;;;6.28;4.97;;;9.40;96.30;;;;;;5064165;28;20203;-75
2022/04/20 00:12:08;;;;;;;8.90;4.63;;;9.40;96.50;;;;;;5063162;28;20281;-76
2022/04/20 00:14:35;;;;;;;7.80;4.68;;;9.40;96.60;;;;;;5056624;28;20224;-76
2022/04/20 00:17:02;;;;;;;5.47;4.50;;;9.50;96.80;;;;;;5063367;28;20645;-76
2022/04/20 00:19:30;;;;;;;11.48;4.80;;;9.30;96.80;;;;;;5059288;28;20658;-76
2022/04/20 00:21:57;;;;;;;8.82;3.95;;;9.40;97.10;;;;;;5066039;28;20206;-76
2022/04/20 00:24:24;;;;;;;5.07;4.00;;;9.20;97.60;;;;;;5056875;28;20223;-76
2022/04/20 00:26:51;;;;;;;6.38;4.70;;;9.20;97.60;;;;;;5055994;28;20203;-75
2022/04/20 00:29:18;;;;;;;7.00;4.57;;;9.20;97.90;;;;;;5059700;28;20213;-75
2022/04/20 00:31:45;;;;;;;6.13;4.53;;;9.20;98.00;;;;;;5067290;28;20622;-76
2022/04/20 00:34:12;;;;;;;7.38;4.65;;;9.20;98.20;;;;;;5056444;28;20263;-76
2022/04/20 00:36:40;;;;;;;6.07;4.22;;;9.20;98.20;;;;;;5064216;28;20286;-76
2022/04/20 00:39:07;;;;;;;9.13;4.70;;;9.20;98.20;;;;;;5062636;28;20684;-77
2022/04/20 00:41:34;;;;;;;5.32;4.25;;;9.20;98.50;;;;;;5051372;28;20302;-77
2022/04/20 00:44:02;;;;;;;4.97;4.15;;;9.10;98.70;;;;;;5054489;28;21126;-76
2022/04/20 00:46:30;;;;;;;8.02;4.70;;;9.10;98.90;;;;;;5060451;28;20210;-76
2022/04/20 00:48:58;;;;;;;7.72;4.63;;;9.10;99.10;;;;;;5059499;28;20233;-76
2022/04/20 00:51:25;;;;;;;7.05;5.15;;;9.10;99.00;;;;;;5055341;28;20196;-77
2022/04/20 00:53:58;;;;;;;7.60;4.60;;;9.00;99.40;;;;;;5058912;28;20640;-76
2022/04/20 00:56:25;;;;;;;7.03;5.10;;;9.00;99.60;;;;;;5062448;28;20196;-75
2022/04/20 00:58:53;;;;;;;7.60;3.80;;;8.90;99.70;;;;;;5055815;28;20206;-76
2022/04/20 01:01:20;;;;;;;6.70;5.28;;;8.90;99.80;;;;;;5052348;28;20250;-76
2022/04/20 01:03:47;;;;;;;7.80;4.47;;;8.80;99.90;;;;;;5053843;28;20626;-77
2022/04/20 01:06:14;;;;;;;8.65;5.45;;;8.80;99.90;;;;;;5063767;28;20299;-76
2022/04/20 01:08:41;;;;;;;6.53;4.80;;;8.70;99.90;;;;;;5059528;28;20237;-76
2022/04/20 01:11:09;;;;;;;9.38;5.43;;;8.70;99.90;;;;;;5048438;28;20275;-76
2022/04/20 01:13:36;;;;;;;5.22;4.53;;;8.60;99.90;;;;;;5060232;28;20206;-76
2022/04/20 01:16:04;;;;;;;7.70;4.40;;;8.60;99.90;;;;;;5064861;28;20309;-76
2022/04/20 01:18:30;;;;;;;5.22;4.22;;;8.60;99.90;;;;;;5054697;28;20302;-75
2022/04/20 01:20:59;;;;;;;8.55;4.10;;;8.60;99.90;;;;;;5053839;28;20303;-76
2022/04/20 01:23:27;;;;;;;9.25;4.57;;;8.50;99.90;;;;;;5059481;28;20217;-77
2022/04/20 01:25:54;;;;;;;7.75;4.85;;;8.70;99.90;;;;;;5064676;28;20227;-77
2022/04/20 01:28:27;;;;;;;6.32;4.80;;;8.50;99.90;;;;;;5055734;28;20210;-77
2022/04/20 01:30:54;;;;;;;5.05;4.38;;;8.50;99.90;;;;;;5053411;28;20642;-77
2022/04/20 01:33:22;;;;;;;7.93;3.55;;;8.50;99.90;;;;;;5062261;28;20206;-77
2022/04/20 01:35:49;;;;;;;6.72;5.18;;;8.50;99.90;;;;;;5056313;28;20662;-76
2022/04/20 01:38:18;;;;;;;6.72;5.20;;;8.50;99.90;;;;;;5057574;28;20261;-76
2022/04/20 01:40:44;;;;;;;11.45;4.63;;;8.40;99.90;;;;;;5050301;28;20354;-75
2022/04/20 01:43:11;;;;;;;7.18;4.80;;;8.40;99.90;;;;;;5057079;28;20293;-75
2022/04/20 01:45:38;;;;;;;9.75;4.70;;;8.30;99.90;;;;;;5053342;28;20547;-75
2022/04/20 01:48:07;;;;;;;7.85;4.70;;;8.30;99.90;;;;;;5064700;28;20237;-74
2022/04/20 01:51:46;;;;;;;5.25;4.75;;;8.30;99.90;;;;;;5066974;28;20645;-74
2022/04/20 01:53:22;;;;;;;7.32;5.03;;;8.30;99.90;;;;;;5066161;28;20202;-75
2022/04/20 01:55:49;;;;;;;7.70;4.75;;;8.20;99.90;;;;;;5050401;28;20306;-75
2022/04/20 01:58:17;;;;;;;7.85;5.10;;;8.20;99.90;;;;;;5066142;28;20301;-74
2022/04/20 02:00:45;;;;;;;4.20;3.65;;;8.20;99.90;;;;;;5069376;28;20221;-74
2022/04/20 02:03:11;;;;;;;7.30;4.20;;;8.20;99.90;;;;;;5048579;28;20608;-75
2022/04/20 02:05:38;;;;;;;6.10;4.83;;;8.20;99.90;;;;;;5053917;28;20305;-75
2022/04/20 02:08:06;;;;;;;6.30;4.78;;;8.20;99.90;;;;;;5053825;28;20451;-74
2022/04/20 02:10:34;;;;;;;5.05;4.13;;;8.20;99.90;;;;;;5059323;28;20206;-74
2022/04/20 02:13:01;;;;;;;8.50;5.07;;;8.20;99.90;;;;;;5052828;28;20293;-75
2022/04/20 02:15:28;;;;;;;5.32;4.40;;;8.10;99.90;;;;;;5061528;28;20232;-75
2022/04/20 02:17:55;;;;;;;10.75;5.00;;;8.10;99.90;;;;;;5061589;28;20222;-74
2022/04/20 02:20:22;;;;;;;6.05;4.47;;;8.10;99.90;;;;;;5061677;28;20604;-75
2022/04/20 02:22:49;;;;;;;9.35;4.75;;;8.10;99.90;;;;;;5048687;28;20241;-74
2022/04/20 02:25:16;;;;;;;8.48;4.90;;;8.10;99.90;;;;;;5060983;28;20305;-74
2022/04/20 02:27:44;;;;;;;8.82;4.65;;;8.10;99.90;;;;;;5064764;28;20287;-74
2022/04/20 02:30:12;;;;;;;5.15;4.38;;;8.00;99.90;;;;;;5063193;28;20302;-74
2022/04/20 02:32:39;;;;;;;5.53;4.70;;;8.00;99.90;;;;;;5061598;28;20238;-74
2022/04/20 02:35:06;;;;;;;8.30;5.22;;;8.00;99.90;;;;;;5059028;28;20661;-75
2022/04/20 02:37:35;;;;;;;5.10;4.50;;;8.00;99.90;;;;;;5065898;28;20603;-75
2022/04/20 02:40:02;;;;;;;5.93;4.35;;;8.00;99.90;;;;;;5055264;28;20282;-75
2022/04/20 02:42:30;;;;;;;7.05;4.82;;;8.00;99.90;;;;;;5053167;28;20231;-76
2022/04/20 02:44:58;;;;;;;6.25;4.10;;;7.90;99.90;;;;;;5057830;28;20317;-76
2022/04/20 02:47:25;;;;;;;6.72;4.88;;;7.90;99.90;;;;;;5053623;28;20643;-77
2022/04/20 02:49:52;;;;;;;6.78;4.95;;;7.90;99.90;;;;;;5058304;28;20252;-76
2022/04/20 02:52:19;;;;;;;9.48;5.35;;;7.80;99.90;;;;;;5051651;28;20236;-75
2022/04/20 02:54:46;;;;;;;9.13;6.45;;;7.80;99.90;;;;;;5053788;28;20701;-75
2022/04/20 02:57:13;;;;;;;5.85;4.95;;;7.80;99.90;;;;;;5054237;28;20209;-75
2022/04/20 02:59:40;;;;;;;6.38;5.78;;;7.80;99.90;;;;;;5058008;28;20263;-75
2022/04/20 03:02:09;;;;;;;5.85;5.25;;;7.80;99.90;;;;;;5057078;28;20675;-75
2022/04/20 03:04:36;;;;;;;6.88;4.95;;;7.80;99.90;;;;;;5060241;28;20218;-74
2022/04/20 03:07:03;;;;;;;7.93;5.80;;;7.70;99.90;;;;;;5053411;28;20207;-74
2022/04/20 03:09:30;;;;;;;8.90;6.07;;;7.70;99.90;;;;;;5055924;28;20716;-75
2022/04/20 03:11:57;;;;;;;9.00;4.90;;;7.70;99.90;;;;;;5061724;28;20676;-74
2022/04/20 03:14:24;;;;;;;9.60;4.80;;;7.70;99.90;;;;;;5052504;28;20256;-75
2022/04/20 03:16:51;;;;;;;7.40;5.28;;;7.70;99.90;;;;;;5054138;28;20300;-74
2022/04/20 03:19:19;;;;;;;7.10;5.13;;;7.70;99.90;;;;;;5050104;28;20243;-76
2022/04/20 03:21:46;;;;;;;7.57;5.50;;;7.60;99.90;;;;;;5055197;28;20250;-76
2022/04/20 03:24:14;;;;;;;9.65;6.78;;;7.60;99.90;;;;;;5056078;28;20222;-76
2022/04/20 03:26:41;;;;;;;7.00;5.65;;;7.50;99.90;;;;;;5060464;28;20208;-75
2022/04/20 03:29:08;;;;;;;7.60;5.90;;;7.50;99.90;;;;;;5053841;28;20205;-77
2022/04/20 03:31:37;;;;;;;5.45;4.78;;;7.50;99.90;;;;;;5058974;28;20626;-75
2022/04/20 03:34:05;;;;;;;6.93;5.70;;;7.50;99.90;;;;;;5054954;28;20309;-75
2022/04/20 03:36:33;;;;;;;6.43;4.72;;;7.40;99.90;;;;;;5058662;28;20208;-77
2022/04/20 03:39:01;;;;;;;9.82;5.20;;;7.40;99.90;;;;;;5052444;28;20204;-78
2022/04/20 03:41:28;;;;;;;11.30;5.30;;;7.40;99.90;;;;;;5057497;28;20309;-76
2022/04/20 03:43:55;;;;;;;5.65;5.05;;;7.30;99.90;;;;;;5066682;28;20211;-75
2022/04/20 03:46:25;;;;;;;6.97;4.50;;;7.30;99.90;;;;;;5064336;28;20540;-76
2022/04/20 03:48:52;;;;;;;7.65;4.97;;;7.20;99.90;;;;;;5055258;28;20311;-76
2022/04/20 03:51:19;;;;;;;8.73;6.07;;;7.20;99.90;;;;;;5052537;28;20377;-76
2022/04/20 03:53:48;;;;;;;10.85;5.63;;;7.20;99.90;;;;;;5052986;28;20208;-76
2022/04/20 03:56:15;;;;;;;9.30;6.00;;;7.10;99.90;;;;;;5056137;28;20290;-76
2022/04/20 03:58:52;;;;;;;7.35;5.35;;;7.10;99.90;;;;;;5059694;28;20228;-77
2022/04/20 04:01:19;;;;;;;7.80;5.80;;;7.10;99.90;;;;;;5054095;28;20203;-74
2022/04/20 04:03:45;;;;;;;6.47;5.50;;;7.00;99.90;;;;;;5053949;28;20214;-76
2022/04/20 04:06:13;;;;;;;9.55;6.60;;;7.00;99.90;;;;;;5052741;28;20711;-75
2022/04/20 04:08:51;;;;;;;8.35;6.15;;;7.00;99.90;;;;;;5053045;28;20205;-76
2022/04/20 04:11:18;;;;;;;9.02;7.30;;;7.00;99.90;;;;;;5052707;28;20241;-77
2022/04/20 04:14:20;;;;;;;10.00;6.82;;;7.00;99.90;;;;;;5052744;28;20194;-77
2022/04/20 04:16:47;;;;;;;8.73;6.13;;;7.00;99.90;;;;;;5051964;28;20910;-76
2022/04/20 04:19:15;;;;;;;9.90;5.90;;;7.00;99.90;;;;;;5045819;28;20296;-76
2022/04/20 04:21:42;;;;;;;9.00;6.50;;;7.00;99.90;;;;;;5052160;28;20212;-77
2022/04/20 04:24:34;;;;;;;11.60;7.07;;;7.00;99.90;;;;;;5051624;28;20236;-75
2022/04/20 04:27:00;;;;;;;10.73;7.25;;;7.00;99.90;;;;;;5052645;28;20216;-76
2022/04/20 04:29:39;;;;;;;9.10;6.68;;;7.00;99.90;;;;;;5056264;28;20199;-77
2022/04/20 04:32:07;;;;;;;9.52;5.97;;;7.00;99.90;;;;;;5055400;28;20280;-76
2022/04/20 04:34:34;;;;;;;10.73;5.95;;;7.00;99.90;;;;;;5054703;28;20219;-77
2022/04/20 04:37:01;;;;;;;11.40;7.35;;;7.00;99.90;;;;;;5064660;28;20305;-76
2022/04/20 04:39:30;;;;;;;9.85;7.05;;;6.90;99.90;;;;;;5068391;28;20681;-77
2022/04/20 04:42:00;;;;;;;10.80;7.28;;;7.00;99.90;;;;;;5057630;28;20579;-77
2022/04/20 04:44:28;;;;;;;13.27;6.70;;;7.00;99.90;;;;;;5058680;28;20690;-77
2022/04/20 04:49:41;;;;;;;10.20;8.00;;;7.10;99.90;;;;;;5060381;28;20200;-77
2022/04/20 04:52:11;;;;;;;11.38;7.82;;;7.20;99.90;;;;;;5055442;28;20207;-75
2022/04/20 04:54:40;;;;;;;9.70;8.02;;;7.20;99.90;;;;;;5043577;28;20299;-76
2022/04/20 04:57:08;;;;;;;13.48;8.30;;;7.30;99.90;;;;;;5057864;28;20205;-76
2022/04/20 04:59:36;;;;;;;13.07;8.50;;;7.40;99.90;;;;;;5061659;28;20288;-77
2022/04/20 05:02:04;;;;;;;13.32;8.02;;;7.50;99.90;;;;;;5059154;28;20232;-76
2022/04/20 05:04:31;;;;;;;10.63;6.80;;;7.60;99.90;;;;;;5060748;28;20229;-74
2022/04/20 05:06:58;;;;;;;13.80;7.78;;;7.70;99.90;;;;;;5056716;28;20205;-76
2022/04/20 05:09:25;;;;;;;12.55;8.25;;;7.80;99.90;;;;;;5060079;28;20209;-75
2022/04/20 05:11:54;;;;;;;9.07;7.38;;;7.90;99.90;;;;;;5054546;28;20197;-75
2022/04/20 05:14:22;;;;;;;8.38;6.90;;;7.90;99.90;;;;;;5062083;28;20625;-76
2022/04/20 05:16:50;;;;;;;12.43;8.35;;;8.20;99.90;;;;;;5065140;28;20194;-75
2022/04/20 05:19:17;;;;;;;9.90;7.88;;;8.70;99.90;;;;;;5066285;28;20286;-77
2022/04/20 05:21:44;;;;;;;9.80;6.32;;;9.60;99.90;;;;;;5062469;28;20684;-76
2022/04/20 05:24:11;;;;;;;11.82;7.75;;;10.70;99.90;;;;;;5064664;28;20315;-77
2022/04/20 05:26:38;;;;;;;7.90;6.68;;;11.70;99.90;;;;;;5066582;28;20256;-77
2022/04/20 05:29:06;;;;;;;11.63;6.28;;;12.60;99.90;;;;;;5062328;28;20207;-79
2022/04/20 05:31:33;;;;;;;11.80;8.30;;;13.40;98.20;;;;;;5060254;28;20227;-78
2022/04/20 05:34:02;;;;;;;11.70;8.35;;;14.10;95.80;;;;;;5063162;28;20196;-78
2022/04/20 05:41:39;;;;;;;10.63;7.82;;;14.70;93.50;;;;;;5066976;28;20195;-77
2022/04/20 05:42:02;;;;;;;10.35;6.30;;;15.70;89.90;;;;;;5064298;28;20242;-80
2022/04/20 05:44:30;;;;;;;9.93;7.53;;;16.30;88.80;;;;;;5063315;28;20224;-79
2022/04/20 05:46:57;;;;;;;9.68;7.03;;;16.70;85.80;;;;;;5055194;28;20203;-78
2022/04/20 05:49:25;;;;;;;10.07;6.97;;;17.00;84.20;;;;;;5052887;28;20264;-79
2022/04/20 05:51:51;;;;;;;8.33;7.10;;;17.20;82.30;;;;;;5048305;28;20442;-83
2022/04/20 05:54:18;;;;;;;8.57;7.68;;;17.80;81.10;;;;;;5072065;28;20520;-82
2022/04/20 05:56:45;;;;;;;10.07;7.07;;;18.20;78.30;;;;;;5063327;28;20202;-82
2022/04/20 05:59:12;;;;;;;12.67;7.60;;;18.40;77.20;;;;;;5059051;28;20478;-82
2022/04/20 06:01:41;;;;;;;18.10;9.20;;;18.70;76.50;;;;;;5060419;28;20581;-84
2022/04/20 06:04:08;;;;;;;9.80;7.83;;;19.20;75.30;;;;;;5054907;28;20478;-82
2022/04/20 06:06:34;;;;;;;10.33;7.53;;;19.40;73.50;;;;;;5062379;28;20527;-83
2022/04/20 06:09:03;;;;;;;11.93;6.97;;;19.70;71.30;;;;;;5063769;28;20467;-82
2022/04/20 06:11:30;;;;;;;7.33;6.53;;;19.70;70.70;;;;;;5063534;28;20454;-82
2022/04/20 06:13:58;;;;;;;13.57;6.70;;;19.90;70.40;;;;;;5063378;28;20541;-82
2022/04/20 06:16:25;;;;;;;8.77;6.37;;;20.50;68.70;;;;;;5052794;28;20507;-82
2022/04/20 06:18:57;;;;;;;8.43;6.20;;;20.80;67.10;;;;;;5067409;28;20457;-82
2022/04/20 06:21:24;;;;;;;8.63;6.90;;;20.90;66.00;;;;;;5053813;28;20979;-80
2022/04/20 06:23:51;;;;;;;7.80;7.00;;;21.30;64.60;;;;;;5058329;28;20852;-81
2022/04/20 06:26:18;;;;;;;9.00;6.43;;;21.50;64.80;;;;;;5068279;28;20502;-84
2022/04/20 06:28:45;;;;;;;7.60;6.30;;;21.80;62.70;;;;;;5067751;28;20443;-82
2022/04/20 06:31:12;;;;;;;9.57;7.03;;;22.00;62.00;;;;;;5083669;28;20438;-81
2022/04/20 06:33:39;;;;;;;7.63;6.10;;;22.20;60.10;;;;;;5059053;28;20473;-82
2022/04/20 06:36:08;;;;;;;8.80;5.93;;;22.60;59.50;;;;;;5052302;28;20477;-80
2022/04/20 06:38:34;;;;;;;11.90;6.90;;;22.30;58.50;;;;;;5054603;28;20525;-80
2022/04/20 06:41:01;;;;;;;9.30;6.33;;;22.20;59.00;;;;;;5053727;28;20959;-74
2022/04/20 06:43:28;;;;;;;10.00;6.10;;;22.40;58.10;;;;;;5054329;28;20492;-76
2022/04/20 06:45:56;;;;;;;9.97;7.07;;;22.10;57.70;;;;;;5064165;28;20488;-71
2022/04/20 06:48:23;;;;;;;6.23;5.60;;;21.40;58.30;;;;;;5058051;28;20449;-73
2022/04/20 06:50:52;;;;;;;6.57;5.83;;;21.00;59.10;;;;;;5050431;28;20454;-80
2022/04/20 06:58:50;;;;;;;9.60;6.90;;;21.40;59.30;;;;;;5059555;28;20421;-75
2022/04/20 07:01:18;;;;;;;9.13;6.57;;;22.00;58.90;;;;;;5056922;28;20537;-76
2022/04/20 07:03:45;;;;;;;8.03;5.90;;;22.20;57.90;;;;;;5055421;28;20987;-78
2022/04/20 07:06:12;;;;;;;13.30;6.90;;;22.50;57.10;;;;;;5056218;28;20453;-75
2022/04/20 07:08:41;;;;;;;6.93;6.33;;;22.50;57.50;;;;;;5060562;28;20451;-75
2022/04/20 07:11:08;;;;;;;10.23;6.90;;;22.70;56.50;;;;;;5062619;28;20481;-74
2022/04/20 07:13:35;;;;;;;7.13;6.20;;;22.20;56.80;;;;;;5053472;28;20528;-74
2022/04/20 07:16:04;;;;;;;9.93;6.73;;;22.70;57.70;;;;;;5049498;28;20489;-74
2022/04/20 07:18:31;;;;;;;9.63;6.03;;;23.00;56.20;;;;;;5053487;28;20485;-74
2022/04/20 07:20:59;;;;;;;7.20;6.27;;;23.10;56.20;;;;;;5056535;28;20481;-77
2022/04/20 07:23:26;;;;;;;7.33;5.03;;;23.30;55.10;;;;;;5053011;28;20484;-76
2022/04/20 07:25:54;;;;;;;8.83;6.13;;;23.10;54.30;;;;;;5049748;28;20481;-76
2022/04/20 07:28:21;;;;;;;7.27;5.67;;;23.20;53.30;;;;;;5050979;28;20485;-82
2022/04/20 07:30:48;;;;;;;6.77;4.70;;;23.30;53.50;;;;;;5051014;28;20877;-79
2022/04/20 07:33:16;;;;;;;8.63;4.67;;;22.80;53.00;;;;;;5059975;28;20446;-77
2022/04/20 07:35:44;;;;;;;5.93;4.20;;;22.00;52.70;;;;;;5058438;28;20531;-79
2022/04/20 07:38:11;;;;;;;6.73;4.73;;;21.50;53.80;;;;;;5053012;28;20446;-79
2022/04/20 07:40:38;;;;;;;10.60;5.57;;;21.10;54.10;;;;;;5058507;28;20450;-76
2022/04/20 07:43:07;;;;;;;6.60;5.40;;;20.80;54.30;;;;;;5054210;28;20471;-76
2022/04/20 07:45:34;;;;;;;5.93;4.97;;;20.40;55.20;;;;;;5054134;28;20897;-77
2022/04/20 07:48:02;;;;;;;7.33;5.63;;;19.70;55.90;;;;;;5055153;28;20500;-75
2022/04/20 07:50:29;;;;;;;8.00;6.70;;;19.20;57.30;;;;;;5051811;28;20480;-74
2022/04/20 07:52:58;;;;;;;6.00;4.60;;;19.10;58.40;;;;;;5057874;28;20449;-77
2022/04/20 07:55:26;;;;;;;8.13;5.20;;;19.80;58.60;;;;;;5052416;28;21036;-79
2022/04/20 07:57:55;;;;;;;6.37;4.70;;;20.80;57.40;;;;;;5052404;28;20525;-82
2022/04/20 08:00:24;;;;;;;12.97;5.17;;;21.50;56.10;;;;;;5052825;28;20553;-79
2022/04/20 08:02:51;;;;;;;4.97;4.03;;;22.50;55.10;;;;;;5060386;28;20564;-78
2022/04/20 08:05:20;;;;;;;10.13;4.77;;;23.20;53.70;;;;;;5054145;28;20457;-76
2022/04/20 08:07:47;;;;;;;6.47;4.87;;;24.10;51.90;;;;;;5048304;28;20450;-77
2022/04/20 08:10:15;;;;;;;6.30;4.43;;;24.80;51.60;;;;;;5059306;28;21060;-73
2022/04/20 08:12:44;;;;;;;4.47;4.07;;;25.50;50.80;;;;;;5061488;28;20438;-73
2022/04/20 08:15:12;;;;;;;5.60;5.10;;;25.70;49.10;;;;;;5059118;28;20903;-76
2022/04/20 08:17:40;;;;;;;6.40;5.50;;;26.00;48.70;;;;;;5058561;28;20486;-75
2022/04/20 08:20:09;;;;;;;6.70;4.80;;;26.10;48.40;;;;;;5061612;28;20787;-76
2022/04/20 08:22:41;;;;;;;7.03;5.50;;;26.10;48.40;;;;;;5064444;28;20554;-76
2022/04/20 08:25:09;;;;;;;5.80;5.13;;;25.90;48.50;;;;;;5066259;28;20464;-74
2022/04/20 08:27:37;;;;;;;8.47;5.27;;;26.30;49.20;;;;;;5065007;28;20455;-76
2022/04/20 08:30:05;;;;;;;4.80;4.37;;;26.40;47.60;;;;;;5062945;28;20477;-77
2022/04/20 08:32:32;;;;;;;9.63;5.63;;;26.30;48.00;;;;;;5060745;28;20924;-76
2022/04/20 08:35:00;;;;;;;6.07;4.97;;;25.60;48.60;;;;;;5066140;28;20552;-77
2022/04/20 08:37:27;;;;;;;6.00;4.63;;;25.40;49.80;;;;;;5060043;28;20541;-76
2022/04/20 08:39:54;;;;;;;7.53;5.00;;;25.60;49.80;;;;;;5057613;28;20482;-76
2022/04/20 08:42:22;;;;;;;5.73;4.20;;;26.20;49.50;;;;;;5066435;28;20474;-73
2022/04/20 08:44:50;;;;;;;5.60;4.63;;;27.60;48.00;;;;;;5047691;28;20462;-75
2022/04/20 08:47:21;;;;;;;7.60;4.40;;;27.80;46.80;;;;;;5054323;28;20856;-79
2022/04/20 08:49:50;;;;;;;9.30;5.10;;;28.10;46.10;;;;;;5048199;28;20517;-77
2022/04/20 08:52:42;;;;;;;5.57;4.97;;;28.40;45.40;;;;;;5050378;28;20434;-77
2022/04/20 08:55:11;;;;;;;5.20;4.70;;;28.20;44.70;;;;;;5048586;28;20482;-77
2022/04/20 08:57:52;;;;;;;4.27;3.30;;;28.60;45.30;;;;;;5048499;28;20540;-79
2022/04/20 09:00:22;;;;;;;5.63;4.93;;;29.00;43.90;;;;;;5068183;28;20497;-77
2022/04/20 09:02:52;;;;;;;6.33;4.50;;;27.90;44.50;;;;;;5067391;28;20488;-77
2022/04/20 09:05:20;;;;;;;6.00;4.70;;;27.30;45.20;;;;;;5054714;28;20462;-77
2022/04/20 09:07:48;;;;;;;4.70;4.20;;;27.80;45.70;;;;;;5054992;28;20452;-77
2022/04/20 09:10:16;;;;;;;6.17;4.10;;;28.70;42.50;;;;;;5050160;28;20530;-80
2022/04/20 09:12:45;;;;;;;5.50;4.40;;;29.10;43.00;;;;;;5048469;28;20454;-79
2022/04/20 09:15:14;;;;;;;8.17;4.33;;;29.00;42.20;;;;;;5053068;28;20520;-77
2022/04/20 09:17:44;;;;;;;4.80;3.20;;;28.50;40.40;;;;;;5049224;28;20443;-79
2022/04/20 09:20:17;;;;;;;12.60;3.47;;;28.00;39.70;;;;;;5044154;28;20442;-80
2022/04/20 09:23:01;;;;;;;30.83;9.60;;;27.70;39.40;;;;;;5049335;28;20784;-80
2022/04/20 09:25:32;;;;;;;7.30;4.00;;;27.10;40.40;;;;;;5060960;28;20476;-83
2022/04/20 09:27:59;;;;;;;6.27;3.03;;;26.30;40.50;;;;;;5057371;28;20912;-77
2022/04/20 09:30:33;;;;;;;3.80;3.40;;;25.90;41.00;;;;;;5059908;28;20473;-78
2022/04/20 09:33:02;;;;;;;10.07;4.07;;;25.50;42.20;;;;;;5066404;28;20581;-75
2022/04/20 09:35:29;;;;;;;5.80;3.93;;;25.60;42.40;;;;;;5063655;28;20833;-79
2022/04/20 09:38:08;;;;;;;8.50;3.50;;;25.40;42.30;;;;;;5052043;28;20485;-76
2022/04/20 09:40:37;;;;;;;4.93;3.37;;;25.30;43.20;;;;;;5050206;28;20801;-81
2022/04/20 09:43:06;;;;;;;41.43;9.93;;;25.20;43.00;;;;;;5052651;28;20452;-78
2022/04/20 09:45:34;;;;;;;5.73;3.33;;;25.00;42.50;;;;;;5056352;28;20546;-79
2022/04/20 09:51:10;;;;;;;4.40;3.37;;;24.30;42.70;;;;;;5050015;28;20440;-83
2022/04/20 09:53:44;;;;;;;4.20;2.60;;;24.80;43.90;;;;;;5055719;28;20472;-85
2022/04/20 09:56:18;;;;;;;8.03;3.80;;;25.10;43.60;;;;;;5063022;28;21068;-78
2022/04/20 09:58:46;;;;;;;6.63;4.17;;;25.30;43.00;;;;;;5054437;28;20489;-79
2022/04/20 10:01:27;;;;;;;3.57;2.77;;;25.50;43.00;;;;;;5052082;28;20453;-79
2022/04/20 10:03:55;;;;;;;5.00;3.40;;;24.90;42.50;;;;;;5055429;28;20540;-78
2022/04/20 10:06:22;;;;;;;4.00;3.10;;;25.50;42.30;;;;;;5053192;28;20816;-78
2022/04/20 10:08:51;;;;;;;3.33;3.00;;;25.80;42.00;;;;;;5073472;28;20441;-76
2022/04/20 10:11:18;;;;;;;5.50;3.17;;;25.70;41.60;;;;;;5057130;28;20529;-77
2022/04/20 10:16:05;;;;;;;3.13;2.83;;;25.40;42.10;;;;;;5066356;28;20542;-76
2022/04/20 10:16:37;;;;;;;4.20;3.13;;;24.40;42.10;;;;;;5061480;28;20443;-77
2022/04/20 10:19:04;;;;;;;4.43;3.33;;;24.20;43.30;;;;;;5065514;28;20441;-79
2022/04/20 10:21:35;;;;;;;4.90;2.93;;;24.50;43.20;;;;;;5061775;28;20468;-79
2022/04/20 10:24:08;;;;;;;5.77;3.70;;;24.70;43.70;;;;;;5054112;28;20478;-79
2022/04/20 10:26:35;;;;;;;3.77;2.90;;;24.20;43.80;;;;;;5048460;28;20458;-78
2022/04/20 10:29:10;;;;;;;3.17;2.87;;;24.60;44.10;;;;;;5061445;28;20536;-79
2022/04/20 10:31:44;;;;;;;5.30;3.40;;;24.60;43.20;;;;;;5067683;28;20437;-78
2022/04/20 10:34:14;;;;;;;2.60;2.40;;;24.80;42.30;;;;;;5057230;28;20470;-79
2022/04/20 10:36:41;;;;;;;3.47;2.27;;;24.60;40.70;;;;;;5046469;28;20973;-80
2022/04/20 10:39:20;;;;;;;3.20;2.20;;;23.40;41.00;;;;;;5060500;28;20477;-79
2022/04/20 10:42:17;;;;;;;1.87;1.77;;;22.20;42.10;;;;;;5056471;28;20445;-79
2022/04/20 10:45:10;;;;;;;2.67;2.30;;;21.30;42.70;;;;;;5050639;28;20528;-78
2022/04/20 10:47:40;;;;;;;2.50;1.83;;;20.60;44.00;;;;;;5041334;28;20457;-81
2022/04/20 10:50:16;;;;;;;3.57;2.47;;;20.10;44.30;;;;;;5054976;28;20545;-79
2022/04/20 10:52:47;;;;;;;3.60;2.40;;;19.70;45.30;;;;;;5052315;28;20537;-76
2022/04/20 10:55:16;;;;;;;3.80;2.20;;;19.60;46.30;;;;;;5052367;28;20851;-74
2022/04/20 10:57:45;;;;;;;3.87;2.20;;;19.50;46.50;;;;;;5049094;28;20490;-77
2022/04/20 11:00:36;;;;;;;5.30;2.20;;;19.60;46.80;;;;;;5054211;28;20442;-77
2022/04/20 11:03:04;;;;;;;2.87;2.50;;;19.90;45.60;;;;;;5055813;28;20549;-76
2022/04/20 11:05:33;;;;;;;3.63;1.97;;;19.80;45.80;;;;;;5055496;28;20477;-79
2022/04/20 11:08:08;;;;;;;2.97;2.30;;;19.70;46.60;;;;;;5065791;28;20464;-78
2022/04/20 11:10:42;;;;;;;2.83;2.20;;;19.80;46.60;;;;;;5065826;28;20462;-75
2022/04/20 11:19:13;;;;;;;4.27;1.93;;;19.80;46.70;;;;;;5076203;28;20463;-80
2022/04/20 11:21:54;;;;;;;1.97;1.70;;;19.50;46.50;;;;;;5071629;28;20459;-81
2022/04/20 11:24:27;;;;;;;4.67;1.80;;;19.30;46.40;;;;;;5058326;28;20693;-82
2022/04/20 11:26:56;;;;;;;2.40;1.50;;;19.00;46.50;;;;;;5066921;28;20604;-81
2022/04/20 11:29:25;;;;;;;3.83;1.60;;;18.60;46.90;;;;;;5068926;28;20464;-85
2022/04/20 11:31:57;;;;;;;2.30;2.03;;;18.40;46.90;;;;;;5068498;28;20434;-82
2022/04/20 11:34:26;;;;;;;2.00;1.67;;;18.60;46.50;;;;;;5077230;28;20553;-83
2022/04/20 11:36:54;;;;;;;2.63;2.10;;;18.50;46.30;;;;;;5085853;28;20458;-84
2022/04/20 11:39:23;;;;;;;2.23;1.40;;;18.50;46.80;;;;;;5076850;28;20427;-80
2022/04/20 11:41:59;;;;;;;2.33;2.07;;;18.40;46.10;;;;;;5073773;28;20535;-80
2022/04/20 11:44:28;;;;;;;2.60;2.20;;;18.20;46.10;;;;;;5070860;28;20450;-82
2022/04/20 11:47:00;;;;;;;2.87;1.63;;;18.20;46.60;;;;;;5072658;28;20430;-80
2022/04/20 11:49:34;;;;;;;2.53;1.97;;;18.30;47.20;;;;;;5059865;28;20508;-79
2022/04/20 11:52:03;;;;;;;3.67;2.63;;;18.40;47.10;;;;;;5070932;28;20426;-81
2022/04/20 11:54:30;;;;;;;3.37;2.77;;;18.20;48.40;;;;;;5071928;28;20543;-84
2022/04/20 11:56:58;;;;;;;51.53;8.90;;;18.30;48.80;;;;;;5066418;28;20586;-86
2022/04/20 11:59:27;;;;;;;5.97;2.40;;;18.30;47.90;;;;;;5074276;28;20435;-85
2022/04/20 12:01:57;;;;;;;5.10;1.73;;;18.20;47.90;;;;;;5071366;28;20423;-83
2022/04/20 12:04:25;;;;;;;3.93;2.23;;;18.20;49.20;;;;;;5067419;28;20481;-84
2022/04/20 12:06:55;;;;;;;2.07;1.87;;;18.20;48.10;;;;;;5069037;28;20465;-81
2022/04/20 12:09:24;;;;;;;4.47;1.63;;;18.20;47.60;;;;;;5061820;28;20598;-78
2022/04/20 12:11:55;;;;;;;4.23;2.27;;;18.20;47.60;;;;;;5062520;28;20430;-83
2022/04/20 12:14:24;;;;;;;2.20;1.80;;;18.20;47.40;;;;;;5062522;28;20490;-80
2022/04/20 12:16:52;;;;;;;2.77;1.70;;;18.00;47.10;;;;;;5059107;28;20528;-83
2022/04/20 12:19:22;;;;;;;2.27;2.00;;;18.00;47.60;;;;;;5055755;28;20442;-84
2022/04/20 12:21:49;;;;;;;4.37;2.23;;;17.80;47.90;;;;;;5060120;28;20443;-82
2022/04/20 12:24:21;;;;;;;3.00;2.30;;;17.80;48.70;;;;;;5064521;28;20464;-83
2022/04/20 12:26:49;;;;;;;3.73;1.63;;;17.90;48.70;;;;;;5070593;28;20900;-85
2022/04/20 12:29:20;;;;;;;4.80;2.30;;;18.00;48.60;;;;;;5056765;28;20456;-82
2022/04/20 12:31:50;;;;;;;4.87;3.83;;;18.00;49.30;;;;;;5058974;28;20435;-84
2022/04/20 12:34:19;;;;;;;3.00;2.40;;;18.10;49.50;;;;;;5059346;28;20485;-82
2022/04/20 12:36:55;;;;;;;6.17;5.60;;;18.30;48.60;;;;;;5052738;28;20506;-84
2022/04/20 12:39:42;;;;;;;7.03;4.30;;;18.40;49.00;;;;;;5058574;28;20614;-86
2022/04/20 12:42:11;;;;;;;8.30;3.20;;;18.40;49.70;;;;;;5064397;28;20516;-84
2022/04/20 12:44:41;;;;;;;3.53;2.60;;;18.60;50.00;;;;;;5061962;28;20454;-83
2022/04/20 12:47:42;;;;;;;3.23;2.50;;;18.60;50.10;;;;;;5068242;28;20451;-82
2022/04/20 12:50:18;;;;;;;5.17;3.10;;;18.70;50.20;;;;;;5066018;28;20597;-85
2022/04/20 12:52:54;;;;;;;2.83;2.40;;;18.70;49.60;;;;;;5084695;28;20548;-83
2022/04/20 12:55:22;;;;;;;2.20;2.00;;;18.60;49.00;;;;;;5065221;28;20767;-85
2022/04/20 13:03:36;;;;;;;3.20;2.50;;;18.60;50.30;;;;;;5067532;28;20468;-85
2022/04/20 13:06:06;;;;;;;6.73;2.80;;;18.70;49.70;;;;;;5073418;28;20549;-84
2022/04/20 13:08:33;;;;;;;2.47;2.27;;;18.70;49.50;;;;;;5069577;28;20438;-83
2022/04/20 13:11:00;;;;;;;5.00;2.30;;;18.70;49.80;;;;;;5079110;28;20425;-83
2022/04/20 13:13:27;;;;;;;3.10;2.80;;;18.70;50.10;;;;;;5080366;28;20519;-83
2022/04/20 13:15:55;;;;;;;4.70;2.93;;;18.70;49.70;;;;;;5081449;28;20461;-82
2022/04/20 13:18:26;;;;;;;4.83;3.10;;;18.70;49.80;;;;;;5080455;28;20536;-84
2022/04/20 13:20:55;;;;;;;3.13;2.40;;;18.70;49.80;;;;;;5078681;28;20434;-84
2022/04/20 13:23:37;;;;;;;4.90;2.70;;;18.70;48.90;;;;;;5050119;28;20471;-84
2022/04/20 13:28:49;;;;;;;4.40;3.10;;;18.60;49.20;;;;;;5080475;28;20490;-81
2022/04/20 13:31:16;;;;;;;2.30;2.10;;;18.60;49.10;;;;;;5071300;28;20415;-83